Time;durP1;ratioP1;P1;durP2;ratioP2;P2;SDS_P1;SDS_P2;PMS_P1;PMS_P2;Temp;Humidity;BMP_temperature;BMP_pressure;BME280_temperature;BME280_humidity;BME280_pressure;Samples;Min_cycle;Max_cycle;Signal;HPM_P1;HPM_P2
2021/09/23 00:00:15;;;;;;;0.10;0.10;;;;;;;8.80;60.23;98979.51;114570;1209;137535;-83
2021/09/23 00:05:20;;;;;;;0.00;0.00;;;;;;;8.73;60.61;98978.49;114492;1211;137449;-83
2021/09/23 00:07:48;;;;;;;0.00;0.00;;;;;;;8.73;61.13;98975.33;114470;1212;139046;-83
2021/09/23 00:10:21;;;;;;;0.10;0.10;;;;;;;8.76;61.26;98975.99;114773;1211;22459;-83
2021/09/23 00:12:47;;;;;;;0.00;0.00;;;;;;;8.79;61.18;98979.03;114529;1210;137588;-83
2021/09/23 00:15:15;;;;;;;0.10;0.10;;;;;;;8.84;61.17;98985.38;114656;1210;137597;-83
2021/09/23 00:17:47;;;;;;;0.00;0.00;;;;;;;8.87;61.36;98985.98;114554;1211;137172;-83
2021/09/23 00:20:18;;;;;;;0.10;0.10;;;;;;;8.92;61.09;98990.30;114675;1211;137209;-83
2021/09/23 00:22:44;;;;;;;0.10;0.10;;;;;;;8.95;61.14;98987.20;114517;1210;138125;-82
2021/09/23 00:25:10;;;;;;;0.00;0.00;;;;;;;8.97;60.88;98989.45;114624;1209;23293;-83
2021/09/23 00:27:36;;;;;;;0.00;0.00;;;;;;;8.97;60.64;98992.14;114522;1211;137063;-83
2021/09/23 00:30:03;;;;;;;0.00;0.00;;;;;;;8.96;60.76;98994.55;114441;1196;137302;-82
2021/09/23 00:32:29;;;;;;;0.00;0.00;;;;;;;8.94;60.83;99002.30;114625;1211;137264;-82
2021/09/23 00:34:54;;;;;;;0.00;0.00;;;;;;;8.88;60.55;99011.44;114685;1206;137512;-82
2021/09/23 00:37:19;;;;;;;0.00;0.00;;;;;;;8.81;60.76;99010.42;114660;1208;22425;-83
2021/09/23 00:39:45;;;;;;;0.00;0.00;;;;;;;8.76;60.69;99013.05;114740;1209;137014;-82
2021/09/23 00:42:10;;;;;;;0.00;0.00;;;;;;;8.73;60.91;99021.23;114573;1211;137285;-82
2021/09/23 00:44:36;;;;;;;0.10;0.10;;;;;;;8.69;61.04;99023.20;114604;1211;137192;-82
2021/09/23 00:47:02;;;;;;;0.00;0.00;;;;;;;8.64;61.12;99019.48;114543;1211;137337;-83
2021/09/23 00:49:29;;;;;;;0.10;0.10;;;;;;;8.59;61.27;99020.05;114680;1207;136319;-81
2021/09/23 00:51:55;;;;;;;0.10;0.10;;;;;;;8.54;61.58;99022.77;114667;1211;22684;-82
2021/09/23 00:54:20;;;;;;;0.00;0.00;;;;;;;8.49;61.30;99023.67;114626;1211;136924;-82
2021/09/23 00:56:46;;;;;;;0.10;0.10;;;;;;;8.46;61.46;99023.91;114629;1211;137035;-82
2021/09/23 00:59:11;;;;;;;0.00;0.00;;;;;;;8.41;61.53;99017.55;114538;1210;137246;-82
2021/09/23 01:01:37;;;;;;;0.00;0.00;;;;;;;8.36;61.88;99019.77;114656;1206;137457;-81
2021/09/23 01:04:02;;;;;;;0.00;0.00;;;;;;;8.30;61.91;99016.30;114642;1211;22450;-82
2021/09/23 01:06:27;;;;;;;0.10;0.10;;;;;;;8.25;61.89;99014.30;114611;1211;135839;-82
2021/09/23 01:08:58;;;;;;;0.00;0.00;;;;;;;8.22;62.32;99011.64;114543;1209;137191;-81
2021/09/23 01:11:27;;;;;;;0.00;0.00;;;;;;;8.18;62.09;99010.75;114525;1212;137159;-81
2021/09/23 01:13:53;;;;;;;0.10;0.10;;;;;;;8.15;62.48;99004.92;114572;1211;138438;-81
2021/09/23 01:16:19;;;;;;;0.10;0.10;;;;;;;8.17;63.03;99002.70;114565;1211;22454;-81
2021/09/23 01:18:45;;;;;;;0.00;0.00;;;;;;;8.20;63.15;98999.51;114607;1211;137677;-81
2021/09/23 01:21:11;;;;;;;0.00;0.00;;;;;;;8.24;63.21;98996.17;114592;1200;138229;-81
2021/09/23 01:23:37;;;;;;;0.00;0.00;;;;;;;8.28;63.35;98994.16;114449;1209;137302;-82
2021/09/23 01:26:07;;;;;;;0.10;0.10;;;;;;;8.31;63.36;98998.06;114532;1210;137804;-82
2021/09/23 01:28:32;;;;;;;0.00;0.00;;;;;;;8.33;63.19;98989.34;114593;1209;137324;-81
2021/09/23 01:30:57;;;;;;;0.10;0.10;;;;;;;8.33;63.43;98990.41;114738;1208;23191;-81
2021/09/23 01:33:23;;;;;;;0.00;0.00;;;;;;;8.32;63.03;98982.85;114569;1211;137377;-82
2021/09/23 01:35:48;;;;;;;0.00;0.00;;;;;;;8.31;63.41;98979.55;114561;1206;137734;-82
2021/09/23 01:38:14;;;;;;;0.00;0.00;;;;;;;8.29;63.23;98977.67;114506;1211;137588;-82
2021/09/23 01:40:39;;;;;;;0.00;0.00;;;;;;;8.27;63.09;98982.05;114629;1211;138544;-82
2021/09/23 01:43:05;;;;;;;0.00;0.00;;;;;;;8.22;63.03;98980.50;114672;1211;22439;-82
2021/09/23 01:45:30;;;;;;;0.00;0.00;;;;;;;8.17;62.95;98979.15;114470;1211;137670;-82
2021/09/23 01:47:56;;;;;;;0.00;0.00;;;;;;;8.12;62.90;98974.31;114504;1211;137170;-81
2021/09/23 01:50:21;;;;;;;0.10;0.10;;;;;;;8.05;63.20;98974.44;114561;1211;137093;-82
2021/09/23 01:52:47;;;;;;;0.00;0.00;;;;;;;7.98;63.47;98971.23;114624;1211;137610;-81
2021/09/23 01:55:12;;;;;;;0.00;0.00;;;;;;;7.91;63.55;98976.35;114650;1210;22454;-81
2021/09/23 01:57:38;;;;;;;0.00;0.00;;;;;;;7.84;63.57;98974.14;114575;1209;137131;-80
2021/09/23 02:00:05;;;;;;;0.00;0.00;;;;;;;7.78;63.59;98969.93;114583;1210;137105;-81
2021/09/23 02:02:31;;;;;;;0.00;0.00;;;;;;;7.71;63.55;98968.09;114658;1211;137130;-81
2021/09/23 02:04:56;;;;;;;0.00;0.00;;;;;;;7.64;63.52;98976.55;114585;1211;137291;-81
2021/09/23 02:07:22;;;;;;;0.00;0.00;;;;;;;7.59;63.64;98974.96;114681;1211;22392;-81
2021/09/23 02:09:49;;;;;;;0.00;0.00;;;;;;;7.57;63.87;98975.02;114460;1211;137362;-81
2021/09/23 02:12:16;;;;;;;0.00;0.00;;;;;;;7.58;64.42;98970.17;114457;1211;137934;-82
2021/09/23 02:14:43;;;;;;;0.00;0.00;;;;;;;7.59;64.66;98970.63;114610;1211;138056;-81
2021/09/23 02:17:08;;;;;;;0.10;0.10;;;;;;;7.63;64.71;98964.59;114632;1211;137770;-81
2021/09/23 02:19:34;;;;;;;0.00;0.00;;;;;;;7.66;64.95;98956.91;114438;1211;137469;-80
2021/09/23 02:21:59;;;;;;;0.00;0.00;;;;;;;7.69;65.15;98951.31;114657;1211;22470;-80
2021/09/23 02:24:25;;;;;;;0.00;0.00;;;;;;;7.70;64.77;98951.27;114609;1209;137085;-80
2021/09/23 02:26:50;;;;;;;0.10;0.10;;;;;;;7.71;65.11;98955.88;114634;1209;137437;-80
2021/09/23 02:29:16;;;;;;;0.10;0.10;;;;;;;7.73;64.88;98956.30;114566;1209;139752;-79
2021/09/23 02:31:42;;;;;;;0.00;0.00;;;;;;;7.73;64.92;98947.50;114524;1209;137448;-79
2021/09/23 02:34:07;;;;;;;0.10;0.10;;;;;;;7.71;64.80;98954.75;114546;1211;22612;-79
2021/09/23 02:36:33;;;;;;;0.10;0.10;;;;;;;7.69;64.91;98958.18;114564;1211;137104;-79
2021/09/23 02:38:58;;;;;;;0.00;0.00;;;;;;;7.67;65.12;98962.33;114530;1211;137411;-79
2021/09/23 02:41:28;;;;;;;0.00;0.00;;;;;;;7.63;64.98;98959.17;114459;1212;137033;-80
2021/09/23 02:43:54;;;;;;;0.10;0.10;;;;;;;7.60;65.09;98957.52;114504;1209;137358;-81
2021/09/23 02:46:20;;;;;;;0.00;0.00;;;;;;;7.59;65.04;98951.76;114684;1211;22508;-82
2021/09/23 02:48:45;;;;;;;0.00;0.00;;;;;;;7.57;65.34;98949.29;114670;1209;136750;-81
2021/09/23 02:51:11;;;;;;;0.00;0.00;;;;;;;7.55;65.43;98945.82;114570;1211;137390;-81
2021/09/23 02:53:37;;;;;;;0.00;0.00;;;;;;;7.54;65.48;98943.02;114612;1206;136946;-80
2021/09/23 02:56:03;;;;;;;0.00;0.00;;;;;;;7.55;65.79;98943.09;114575;1210;137552;-80
2021/09/23 02:58:28;;;;;;;0.00;0.00;;;;;;;7.61;66.31;98945.69;114577;1211;137007;-80
2021/09/23 03:00:54;;;;;;;0.10;0.10;;;;;;;7.69;66.19;98947.95;114652;1211;22470;-80
2021/09/23 03:03:19;;;;;;;0.00;0.00;;;;;;;7.80;66.34;98948.70;114463;1211;138036;-80
2021/09/23 03:05:45;;;;;;;0.10;0.10;;;;;;;7.91;66.62;98943.01;114503;1211;137188;-80
2021/09/23 03:08:11;;;;;;;0.00;0.00;;;;;;;7.99;66.38;98944.09;114432;1211;137416;-80
2021/09/23 03:10:37;;;;;;;0.00;0.00;;;;;;;8.06;66.24;98942.70;114536;1211;137524;-79
2021/09/23 03:13:02;;;;;;;0.10;0.10;;;;;;;8.11;66.26;98941.80;114571;1211;22478;-80
2021/09/23 03:15:29;;;;;;;0.00;0.00;;;;;;;8.17;65.99;98939.52;114447;1212;136988;-80
2021/09/23 03:17:54;;;;;;;0.10;0.10;;;;;;;8.21;65.69;98935.83;114539;1211;137508;-81
2021/09/23 03:20:23;;;;;;;0.00;0.00;;;;;;;8.25;65.95;98933.27;114617;1209;136488;-81
2021/09/23 03:22:51;;;;;;;0.00;0.00;;;;;;;8.28;65.75;98936.80;114631;1206;137529;-81
2021/09/23 03:25:16;;;;;;;0.10;0.10;;;;;;;8.28;65.64;98935.45;114665;1211;22640;-81
2021/09/23 03:27:43;;;;;;;0.00;0.00;;;;;;;8.28;65.72;98939.64;114432;1211;137239;-81
2021/09/23 03:30:09;;;;;;;0.10;0.10;;;;;;;8.27;65.62;98943.95;114644;1205;138424;-81
2021/09/23 03:32:35;;;;;;;0.00;0.00;;;;;;;8.25;65.56;98940.74;114569;1209;137531;-80
2021/09/23 03:35:00;;;;;;;0.00;0.00;;;;;;;8.22;65.45;98935.29;114473;1211;137288;-80
2021/09/23 03:37:26;;;;;;;0.00;0.00;;;;;;;8.19;65.69;98934.23;114600;1211;138580;-81
2021/09/23 03:39:51;;;;;;;0.20;0.20;;;;;;;8.16;65.62;98933.83;114716;1212;22481;-81
2021/09/23 03:42:17;;;;;;;0.00;0.00;;;;;;;8.11;65.37;98935.74;114636;1211;137102;-81
2021/09/23 03:44:42;;;;;;;0.00;0.00;;;;;;;8.06;65.64;98932.61;114491;1211;138467;-81
2021/09/23 03:47:08;;;;;;;0.00;0.00;;;;;;;8.04;65.62;98933.31;114661;1211;137930;-81
2021/09/23 03:49:34;;;;;;;0.10;0.10;;;;;;;8.05;65.81;98933.95;114625;1205;139892;-81
2021/09/23 03:52:00;;;;;;;0.00;0.00;;;;;;;8.07;65.99;98933.57;114669;1212;22545;-80
2021/09/23 03:54:26;;;;;;;0.00;0.00;;;;;;;8.09;66.33;98938.05;114562;1211;137178;-81
2021/09/23 03:56:51;;;;;;;0.10;0.10;;;;;;;8.10;66.20;98937.57;114555;1212;137272;-81
2021/09/23 03:59:17;;;;;;;0.00;0.00;;;;;;;8.12;66.09;98935.83;114601;1211;137472;-81
2021/09/23 04:01:44;;;;;;;0.10;0.10;;;;;;;8.12;66.03;98933.63;114608;1211;136976;-81
2021/09/23 04:04:10;;;;;;;0.00;0.00;;;;;;;8.12;65.81;98933.90;114653;1209;22442;-81
2021/09/23 04:06:42;;;;;;;0.00;0.00;;;;;;;8.10;65.64;98934.84;114545;1211;137090;-81
2021/09/23 04:09:08;;;;;;;0.10;0.10;;;;;;;8.07;65.74;98935.39;114562;1211;137187;-81
2021/09/23 04:11:33;;;;;;;0.00;0.00;;;;;;;8.02;65.65;98935.69;114688;1211;137563;-81
2021/09/23 04:13:59;;;;;;;0.00;0.00;;;;;;;7.95;65.65;98930.59;114531;1211;137674;-80
2021/09/23 04:16:24;;;;;;;0.10;0.10;;;;;;;7.87;65.96;98930.38;114699;1211;137226;-81
2021/09/23 04:18:50;;;;;;;0.00;0.00;;;;;;;7.83;66.06;98929.05;114757;1211;23679;-81
2021/09/23 04:21:15;;;;;;;0.00;0.00;;;;;;;7.80;66.01;98928.27;114617;1209;136757;-81
2021/09/23 04:23:40;;;;;;;0.00;0.00;;;;;;;7.76;66.19;98926.73;114453;1210;136986;-81
2021/09/23 04:26:06;;;;;;;0.10;0.10;;;;;;;7.73;66.39;98930.17;114620;1211;137528;-81
2021/09/23 04:28:31;;;;;;;0.10;0.10;;;;;;;7.70;66.39;98932.66;114555;1211;137287;-81
2021/09/23 04:30:57;;;;;;;0.00;0.00;;;;;;;7.70;66.27;98936.10;114758;1211;26278;-80
2021/09/23 04:33:25;;;;;;;0.00;0.00;;;;;;;7.70;66.22;98938.34;114583;1209;138034;-81
2021/09/23 04:35:51;;;;;;;0.10;0.10;;;;;;;7.73;66.73;98942.73;114567;1211;138292;-81
2021/09/23 04:38:18;;;;;;;0.00;0.00;;;;;;;7.76;66.81;98948.62;114631;1206;137420;-82
2021/09/23 04:40:45;;;;;;;0.00;0.00;;;;;;;7.77;66.90;98948.91;114646;1210;137474;-82
2021/09/23 04:43:11;;;;;;;0.00;0.00;;;;;;;7.79;66.74;98948.02;114708;1211;24206;-81
2021/09/23 04:45:36;;;;;;;0.10;0.10;;;;;;;7.82;67.03;98942.41;114556;1211;137237;-81
2021/09/23 04:48:02;;;;;;;0.00;0.00;;;;;;;7.85;66.97;98944.07;114607;1211;137430;-81
2021/09/23 04:50:29;;;;;;;0.00;0.00;;;;;;;7.88;66.91;98942.00;114598;1209;137178;-80
2021/09/23 04:52:54;;;;;;;0.00;0.00;;;;;;;7.91;66.87;98944.88;114441;1211;137746;-82
2021/09/23 04:55:19;;;;;;;0.00;0.00;;;;;;;7.95;67.49;98945.45;114652;1207;22443;-82
2021/09/23 04:57:45;;;;;;;0.00;0.00;;;;;;;7.96;67.88;98941.74;114585;1211;137138;-82
2021/09/23 05:00:11;;;;;;;0.10;0.10;;;;;;;7.98;67.63;98937.77;114596;1210;137700;-81
2021/09/23 05:02:37;;;;;;;0.00;0.00;;;;;;;8.00;67.86;98937.73;114567;1212;137122;-81
2021/09/23 05:05:03;;;;;;;0.00;0.00;;;;;;;8.03;67.91;98933.81;114611;1211;137202;-82
2021/09/23 05:07:28;;;;;;;0.10;0.10;;;;;;;8.09;68.01;98933.28;114531;1211;137533;-82
2021/09/23 05:09:54;;;;;;;0.00;0.00;;;;;;;8.17;67.93;98929.84;114736;1211;22446;-82
2021/09/23 05:12:19;;;;;;;0.10;0.10;;;;;;;8.27;68.25;98931.66;114564;1211;138043;-82
2021/09/23 05:14:45;;;;;;;0.10;0.10;;;;;;;8.39;68.43;98932.55;114653;1211;137649;-81
2021/09/23 05:17:11;;;;;;;0.10;0.10;;;;;;;8.50;68.34;98933.27;114554;1209;137357;-82
2021/09/23 05:19:36;;;;;;;0.10;0.10;;;;;;;8.60;68.35;98936.41;114574;1211;137341;-82
2021/09/23 05:22:02;;;;;;;0.10;0.10;;;;;;;8.69;68.12;98939.28;114609;1211;22466;-81
2021/09/23 05:24:28;;;;;;;0.00;0.00;;;;;;;8.72;67.44;98937.42;114635;1211;137141;-80
2021/09/23 05:26:53;;;;;;;0.10;0.10;;;;;;;8.76;67.07;98941.80;114588;1211;137499;-80
2021/09/23 05:29:19;;;;;;;0.10;0.10;;;;;;;8.80;66.93;98948.41;114463;1211;137372;-83
2021/09/23 05:31:44;;;;;;;0.00;0.00;;;;;;;8.85;66.51;98958.67;114561;1206;137683;-82
2021/09/23 05:34:09;;;;;;;0.00;0.00;;;;;;;8.89;66.61;98958.21;114674;1212;22439;-83
2021/09/23 05:36:35;;;;;;;0.10;0.10;;;;;;;8.91;66.46;98961.46;114400;1210;137380;-83
2021/09/23 05:39:03;;;;;;;0.00;0.00;;;;;;;8.93;66.32;98957.90;114483;1212;137374;-83
2021/09/23 05:41:30;;;;;;;0.10;0.10;;;;;;;8.94;65.73;98957.95;114759;1210;137395;-83
2021/09/23 05:43:56;;;;;;;0.00;0.00;;;;;;;8.96;65.88;98959.11;114675;1206;137451;-84
2021/09/23 05:46:21;;;;;;;0.10;0.10;;;;;;;9.01;66.13;98958.14;114448;1206;22585;-83
2021/09/23 05:48:47;;;;;;;0.10;0.10;;;;;;;9.03;66.19;98962.15;114363;1211;137046;-84
2021/09/23 05:51:14;;;;;;;0.10;0.10;;;;;;;9.08;66.00;98964.40;114278;1212;137592;-84
2021/09/23 05:53:40;;;;;;;0.10;0.10;;;;;;;9.16;66.01;98964.98;114871;1210;137671;-82
2021/09/23 05:56:05;;;;;;;0.00;0.00;;;;;;;9.25;65.22;98969.42;114326;1211;137485;-82
2021/09/23 05:58:31;;;;;;;0.10;0.10;;;;;;;9.33;64.76;98964.77;114436;1205;137416;-82
2021/09/23 06:00:56;;;;;;;0.00;0.00;;;;;;;9.38;64.96;98963.77;114460;1212;22443;-82
2021/09/23 06:03:22;;;;;;;0.10;0.10;;;;;;;9.40;65.25;98958.41;114472;1211;137158;-83
2021/09/23 06:05:47;;;;;;;0.10;0.10;;;;;;;9.48;65.41;98955.41;114343;1210;137502;-82
2021/09/23 06:08:14;;;;;;;0.10;0.10;;;;;;;9.56;65.31;98953.39;114493;1211;138760;-82
2021/09/23 06:10:40;;;;;;;0.00;0.00;;;;;;;9.64;65.71;98955.44;115867;1211;137623;-83
2021/09/23 06:13:06;;;;;;;0.00;0.00;;;;;;;9.73;65.99;98953.33;115462;1211;22440;-82
2021/09/23 06:15:33;;;;;;;0.10;0.10;;;;;;;9.85;65.78;98956.52;114535;1212;137397;-83
2021/09/23 06:17:58;;;;;;;0.10;0.10;;;;;;;9.98;65.52;98953.47;114720;1211;137342;-83
2021/09/23 06:20:24;;;;;;;0.00;0.00;;;;;;;10.12;64.94;98955.86;114709;1210;137284;-84
2021/09/23 06:22:51;;;;;;;0.10;0.10;;;;;;;10.25;64.44;98954.16;114571;1212;137492;-83
2021/09/23 06:25:17;;;;;;;0.10;0.10;;;;;;;10.38;64.43;98956.08;114748;1212;22450;-83
2021/09/23 06:27:43;;;;;;;0.20;0.20;;;;;;;10.48;63.71;98955.33;114735;1211;137811;-83
2021/09/23 06:30:12;;;;;;;0.10;0.10;;;;;;;10.58;63.10;98957.33;114662;1212;137708;-83
2021/09/23 06:32:37;;;;;;;0.00;0.00;;;;;;;10.65;62.70;98960.13;114721;1211;137353;-83
2021/09/23 06:35:03;;;;;;;0.00;0.00;;;;;;;10.72;62.45;98962.31;114605;1212;137866;-84
2021/09/23 06:37:29;;;;;;;0.10;0.10;;;;;;;10.78;62.21;98963.98;114645;1212;137555;-84
2021/09/23 06:39:54;;;;;;;0.10;0.10;;;;;;;10.84;62.43;98965.89;114728;1212;22467;-83
2021/09/23 06:42:19;;;;;;;0.10;0.10;;;;;;;10.89;62.14;98969.52;114741;1211;137285;-83
2021/09/23 06:44:45;;;;;;;0.10;0.10;;;;;;;10.94;62.30;98973.09;114517;1212;137583;-84
2021/09/23 06:47:11;;;;;;;0.10;0.10;;;;;;;10.99;61.99;98966.85;114637;1205;137515;-84
2021/09/23 06:49:37;;;;;;;0.10;0.10;;;;;;;11.05;61.94;98954.23;114472;1212;137608;-84
2021/09/23 06:52:03;;;;;;;0.10;0.10;;;;;;;11.11;61.89;98954.15;114787;1212;22491;-84
2021/09/23 06:54:28;;;;;;;0.10;0.10;;;;;;;11.16;61.83;98957.54;114394;1209;137761;-83
2021/09/23 06:56:54;;;;;;;0.10;0.10;;;;;;;11.22;61.95;98961.30;114414;1206;137344;-83
2021/09/23 06:59:19;;;;;;;0.10;0.10;;;;;;;11.29;61.66;98961.16;114519;1211;137570;-83
2021/09/23 07:01:45;;;;;;;0.10;0.10;;;;;;;11.37;61.52;98959.30;114693;1207;138573;-83
2021/09/23 07:04:11;;;;;;;0.10;0.10;;;;;;;11.44;61.45;98952.38;114630;1212;22480;-85
2021/09/23 07:06:39;;;;;;;0.10;0.10;;;;;;;11.49;61.37;98950.15;114582;1210;137304;-85
2021/09/23 07:09:08;;;;;;;0.10;0.10;;;;;;;11.56;61.27;98949.06;114590;1210;137486;-84
2021/09/23 07:11:34;;;;;;;0.10;0.10;;;;;;;11.62;61.15;98950.86;114677;1212;137365;-84
2021/09/23 07:14:00;;;;;;;0.10;0.10;;;;;;;11.68;61.06;98955.12;114475;1211;137619;-84
2021/09/23 07:16:26;;;;;;;0.10;0.10;;;;;;;11.76;61.16;98952.34;114297;1212;137561;-82
2021/09/23 07:18:51;;;;;;;0.10;0.10;;;;;;;11.85;61.01;98947.88;114526;1208;22463;-82
2021/09/23 07:21:17;;;;;;;0.10;0.10;;;;;;;11.93;60.89;98949.20;114433;1212;137631;-82
2021/09/23 07:23:43;;;;;;;0.10;0.10;;;;;;;12.04;61.03;98948.80;114443;1212;137983;-81
2021/09/23 07:26:08;;;;;;;0.10;0.10;;;;;;;12.21;61.13;98951.61;114407;1212;138228;-81
2021/09/23 07:28:37;;;;;;;0.20;0.20;;;;;;;12.38;61.22;98949.25;114546;1205;138286;-84
2021/09/23 07:31:03;;;;;;;0.10;0.10;;;;;;;12.55;61.09;98943.77;114580;1212;22898;-85
2021/09/23 07:33:28;;;;;;;0.10;0.10;;;;;;;12.70;60.75;98936.74;114495;1212;137521;-84
2021/09/23 07:35:54;;;;;;;0.10;0.10;;;;;;;12.87;60.29;98942.98;114477;1212;137371;-85
2021/09/23 07:38:21;;;;;;;0.10;0.10;;;;;;;12.97;60.25;98941.73;114449;1212;137554;-85
2021/09/23 07:40:47;;;;;;;0.20;0.20;;;;;;;12.99;60.02;98942.90;114337;1206;138504;-85
2021/09/23 07:43:13;;;;;;;0.10;0.10;;;;;;;13.04;59.88;98940.13;114517;1212;22774;-85
2021/09/23 07:45:39;;;;;;;0.10;0.10;;;;;;;13.10;59.67;98941.55;114522;1212;137566;-85
2021/09/23 07:48:05;;;;;;;0.10;0.10;;;;;;;13.15;59.49;98945.21;114476;1206;137418;-84
2021/09/23 07:50:30;;;;;;;0.10;0.10;;;;;;;13.24;59.05;98943.23;114460;1212;137479;-83
2021/09/23 07:52:56;;;;;;;0.10;0.10;;;;;;;13.32;59.50;98936.42;114535;1211;137599;-85
2021/09/23 07:55:22;;;;;;;0.10;0.10;;;;;;;13.48;59.42;98940.32;114734;1207;22471;-84
2021/09/23 07:57:48;;;;;;;0.10;0.10;;;;;;;13.61;59.18;98936.69;114521;1212;137109;-84
2021/09/23 08:00:15;;;;;;;0.10;0.10;;;;;;;13.74;58.77;98939.40;114385;1212;137866;-84
2021/09/23 08:02:41;;;;;;;0.10;0.10;;;;;;;13.78;58.42;98943.51;114420;1211;137379;-83
2021/09/23 08:05:07;;;;;;;0.20;0.20;;;;;;;13.86;58.27;98941.80;114348;1212;136717;-84
2021/09/23 08:07:32;;;;;;;0.10;0.10;;;;;;;13.94;58.12;98943.63;114475;1212;138037;-84
2021/09/23 08:09:58;;;;;;;0.10;0.10;;;;;;;13.96;57.76;98943.91;114562;1212;24070;-84
2021/09/23 08:12:23;;;;;;;0.10;0.10;;;;;;;13.98;58.07;98940.57;114466;1209;137502;-84
2021/09/23 08:14:49;;;;;;;0.20;0.20;;;;;;;13.97;57.86;98947.80;114419;1206;138085;-84
2021/09/23 08:17:15;;;;;;;0.10;0.10;;;;;;;14.01;57.69;98944.73;114565;1210;137702;-83
2021/09/23 08:19:40;;;;;;;0.10;0.10;;;;;;;14.01;58.02;98942.27;114440;1212;137709;-83
2021/09/23 08:22:07;;;;;;;0.10;0.10;;;;;;;14.07;57.73;98942.03;114522;1212;22455;-82
2021/09/23 08:24:35;;;;;;;0.20;0.20;;;;;;;14.16;57.90;98937.73;114449;1209;137268;-83
2021/09/23 08:27:01;;;;;;;0.10;0.10;;;;;;;14.30;57.85;98928.47;114517;1210;137438;-82
2021/09/23 08:29:27;;;;;;;0.10;0.10;;;;;;;14.45;57.66;98920.23;114579;1212;137428;-84
2021/09/23 08:31:52;;;;;;;0.20;0.20;;;;;;;14.62;57.50;98927.66;114652;1212;137796;-82
2021/09/23 08:34:18;;;;;;;0.20;0.20;;;;;;;14.80;57.15;98931.94;114489;1205;22457;-83
2021/09/23 08:36:45;;;;;;;0.10;0.10;;;;;;;14.93;56.71;98935.23;114329;1212;137245;-83
2021/09/23 08:39:11;;;;;;;0.20;0.20;;;;;;;15.00;56.39;98935.48;114329;1206;138319;-83
2021/09/23 08:41:38;;;;;;;0.10;0.10;;;;;;;15.09;56.41;98932.45;114412;1212;137454;-83
2021/09/23 08:44:05;;;;;;;0.20;0.20;;;;;;;15.17;56.40;98925.66;114547;1212;137526;-82
2021/09/23 08:46:34;;;;;;;0.20;0.20;;;;;;;15.29;56.04;98928.52;114298;1212;137847;-82
2021/09/23 08:49:05;;;;;;;0.20;0.20;;;;;;;15.39;56.00;98932.20;114571;1212;22456;-84
2021/09/23 08:51:30;;;;;;;0.20;0.20;;;;;;;15.51;55.74;98928.08;114453;1211;138392;-84
2021/09/23 08:53:56;;;;;;;0.20;0.20;;;;;;;15.67;55.71;98929.73;114492;1212;137428;-83
2021/09/23 08:56:23;;;;;;;0.10;0.10;;;;;;;15.81;55.44;98924.54;114566;1212;137590;-82
2021/09/23 08:58:50;;;;;;;0.20;0.20;;;;;;;15.90;55.14;98921.69;114525;1210;137501;-82
2021/09/23 09:01:18;;;;;;;0.20;0.20;;;;;;;16.10;54.63;98918.80;114586;1209;24189;-83
2021/09/23 09:03:45;;;;;;;0.20;0.20;;;;;;;16.23;54.12;98913.77;114585;1211;137019;-83
2021/09/23 09:06:13;;;;;;;0.20;0.20;;;;;;;16.27;53.89;98911.94;114444;1212;137590;-84
2021/09/23 09:08:41;;;;;;;0.20;0.20;;;;;;;16.35;53.27;98916.05;114368;1212;137576;-83
2021/09/23 09:11:09;;;;;;;0.20;0.20;;;;;;;16.42;53.21;98912.02;114480;1212;137673;-83
2021/09/23 09:13:41;;;;;;;0.20;0.20;;;;;;;16.52;53.00;98917.20;114465;1210;137509;-84
2021/09/23 09:16:15;;;;;;;0.20;0.20;;;;;;;16.68;52.95;98918.16;114472;1212;24977;-84
2021/09/23 09:18:48;;;;;;;0.20;0.20;;;;;;;16.82;52.36;98920.65;114459;1206;137047;-84
2021/09/23 09:21:16;;;;;;;0.20;0.20;;;;;;;16.94;52.21;98920.20;114537;1211;137624;-82
2021/09/23 09:23:50;;;;;;;0.20;0.20;;;;;;;17.07;51.84;98912.40;114449;1209;137422;-83
2021/09/23 09:26:31;;;;;;;0.20;0.20;;;;;;;17.23;51.59;98916.95;114611;1211;137460;-83
2021/09/23 09:29:00;;;;;;;0.20;0.20;;;;;;;17.44;51.02;98920.11;114419;1212;138528;-83
2021/09/23 09:31:27;;;;;;;0.30;0.30;;;;;;;17.57;50.49;98923.55;114455;1212;137603;-81
2021/09/23 09:33:57;;;;;;;0.30;0.30;;;;;;;17.67;50.00;98920.90;114562;1212;22455;-82
2021/09/23 09:36:37;;;;;;;0.30;0.30;;;;;;;17.81;49.72;98916.04;114395;1211;137127;-83
2021/09/23 09:39:11;;;;;;;0.20;0.20;;;;;;;17.96;49.27;98903.49;114555;1205;138116;-83
2021/09/23 09:41:40;;;;;;;0.30;0.30;;;;;;;18.20;49.15;98902.38;114549;1205;138291;-83
2021/09/23 09:44:10;;;;;;;0.20;0.20;;;;;;;18.42;48.57;98904.64;114423;1206;137716;-82
2021/09/23 09:46:58;;;;;;;0.30;0.30;;;;;;;18.57;47.82;98907.21;114357;1212;138893;-81
2021/09/23 09:49:25;;;;;;;0.20;0.20;;;;;;;18.75;47.31;98904.36;114628;1210;22595;-82
2021/09/23 09:51:58;;;;;;;0.40;0.40;;;;;;;18.92;46.71;98897.38;114516;1211;137182;-81
2021/09/23 09:54:25;;;;;;;0.20;0.20;;;;;;;19.08;46.41;98898.82;114391;1211;137432;-82
2021/09/23 09:57:06;;;;;;;0.30;0.30;;;;;;;19.04;46.31;98896.83;114539;1212;137367;-82
2021/09/23 09:59:32;;;;;;;0.20;0.20;;;;;;;18.98;45.67;98893.48;114335;1206;138219;-82
2021/09/23 10:01:59;;;;;;;0.20;0.20;;;;;;;18.88;45.89;98898.63;114557;1211;137664;-82
2021/09/23 10:04:28;;;;;;;0.30;0.30;;;;;;;18.81;45.48;98899.55;114489;1212;137595;-82
2021/09/23 10:06:57;;;;;;;0.20;0.20;;;;;;;18.74;45.21;98894.98;114578;1206;22486;-82
2021/09/23 10:09:24;;;;;;;0.20;0.20;;;;;;;18.92;45.27;98888.04;114498;1212;137943;-82
2021/09/23 10:11:49;;;;;;;0.20;0.20;;;;;;;18.99;44.97;98889.38;114525;1209;137658;-82
2021/09/23 10:14:17;;;;;;;0.30;0.30;;;;;;;18.92;44.82;98891.70;114424;1212;137984;-82
2021/09/23 10:16:43;;;;;;;0.40;0.40;;;;;;;18.83;45.30;98892.33;114478;1212;137582;-81
2021/09/23 10:19:10;;;;;;;0.20;0.20;;;;;;;18.88;45.10;98886.38;114678;1205;22922;-82
2021/09/23 10:21:37;;;;;;;0.30;0.30;;;;;;;19.01;45.25;98886.95;114497;1210;137219;-82
2021/09/23 10:24:06;;;;;;;0.30;0.30;;;;;;;19.33;44.72;98882.88;114433;1212;137271;-83
2021/09/23 10:26:35;;;;;;;0.30;0.30;;;;;;;19.70;43.89;98882.55;114404;1212;137475;-84
2021/09/23 10:29:02;;;;;;;0.30;0.30;;;;;;;19.94;43.53;98879.85;114317;1206;138550;-82
2021/09/23 10:31:34;;;;;;;0.20;0.20;;;;;;;19.90;42.92;98883.05;114325;1212;137649;-82
2021/09/23 10:34:02;;;;;;;0.30;0.30;;;;;;;19.96;42.67;98880.60;114369;1212;22454;-82
2021/09/23 10:36:33;;;;;;;0.30;0.30;;;;;;;20.00;42.69;98876.55;114247;1211;137537;-82
2021/09/23 10:39:01;;;;;;;0.30;0.30;;;;;;;19.93;42.19;98874.90;114629;1212;137435;-83
2021/09/23 10:41:28;;;;;;;0.20;0.20;;;;;;;19.90;41.87;98866.88;114246;1212;138407;-82
2021/09/23 10:43:55;;;;;;;0.30;0.30;;;;;;;20.06;41.69;98869.31;114139;1212;137493;-82
2021/09/23 10:46:23;;;;;;;0.30;0.30;;;;;;;20.19;41.36;98870.82;114422;1212;22485;-82
2021/09/23 10:48:49;;;;;;;0.20;0.20;;;;;;;20.23;41.17;98866.36;114233;1212;137006;-83
2021/09/23 10:51:16;;;;;;;0.20;0.20;;;;;;;20.20;41.39;98866.85;114305;1212;137552;-82
2021/09/23 10:53:48;;;;;;;0.30;0.30;;;;;;;20.15;41.45;98864.66;114283;1208;137468;-82
2021/09/23 10:56:19;;;;;;;0.30;0.30;;;;;;;20.21;41.64;98856.09;115037;1212;137544;-84
2021/09/23 10:58:48;;;;;;;0.30;0.30;;;;;;;20.41;41.71;98857.25;114629;1209;137483;-83
2021/09/23 11:01:29;;;;;;;0.20;0.20;;;;;;;20.33;41.38;98861.70;114786;1211;22449;-84
2021/09/23 11:03:56;;;;;;;0.30;0.30;;;;;;;20.30;41.48;98856.58;114649;1212;22489;-83
2021/09/23 11:06:32;;;;;;;0.40;0.40;;;;;;;20.55;41.19;98858.08;114347;1206;137557;-83
2021/09/23 11:08:58;;;;;;;0.40;0.40;;;;;;;20.74;40.94;98854.52;114539;1203;137477;-83
2021/09/23 11:11:24;;;;;;;0.30;0.30;;;;;;;20.96;40.69;98849.39;114349;1212;137578;-83
2021/09/23 11:13:51;;;;;;;0.20;0.20;;;;;;;20.94;40.48;98852.82;114449;1212;137891;-83
2021/09/23 11:16:18;;;;;;;0.30;0.30;;;;;;;20.69;40.38;98840.34;114702;1212;22473;-83
2021/09/23 11:18:44;;;;;;;0.20;0.20;;;;;;;20.49;40.93;98839.20;114616;1211;137086;-83
2021/09/23 11:21:10;;;;;;;0.30;0.30;;;;;;;20.39;41.21;98842.30;114607;1206;137326;-83
2021/09/23 11:23:37;;;;;;;0.40;0.40;;;;;;;20.43;41.48;98848.61;114436;1211;137707;-84